Time;durP1;ratioP1;P1;durP2;ratioP2;P2;SDS_P1;SDS_P2;PMS_P1;PMS_P2;Temp;Humidity;BMP_temperature;BMP_pressure;BME280_temperature;BME280_humidity;BME280_pressure;Samples;Min_cycle;Max_cycle;Signal;HPM_P1;HPM_P2
2022/08/02 00:01:27;;;;;;;3.05;1.70;;;16.50;99.90;;;;;;5093686;28;20027;-68
2022/08/02 00:03:52;;;;;;;3.63;1.95;;;16.50;99.90;;;;;;5093404;28;20095;-68
2022/08/02 00:06:18;;;;;;;3.42;1.80;;;16.50;99.90;;;;;;5093176;28;20055;-68
2022/08/02 00:08:44;;;;;;;3.35;1.50;;;16.40;99.90;;;;;;5093627;28;20027;-67
2022/08/02 00:11:09;;;;;;;4.03;1.58;;;16.40;99.90;;;;;;5093587;28;20028;-68
2022/08/02 00:13:35;;;;;;;3.40;1.42;;;16.40;99.90;;;;;;5093533;28;20036;-68
2022/08/02 00:16:01;;;;;;;2.72;1.60;;;16.40;99.90;;;;;;5093231;28;20024;-68
2022/08/02 00:18:27;;;;;;;3.92;2.00;;;16.40;99.90;;;;;;5093266;28;20028;-68
2022/08/02 00:20:53;;;;;;;3.47;1.80;;;16.40;99.90;;;;;;5075128;28;20028;-68
2022/08/02 00:23:18;;;;;;;2.92;1.80;;;16.40;99.90;;;;;;5093487;28;20054;-67
2022/08/02 00:25:44;;;;;;;2.75;1.65;;;16.50;99.90;;;;;;5093288;28;20071;-67
2022/08/02 00:28:10;;;;;;;2.95;1.70;;;16.50;99.90;;;;;;5093150;28;20028;-67
2022/08/02 00:30:36;;;;;;;3.88;1.83;;;16.60;99.90;;;;;;5093100;28;20021;-67
2022/08/02 00:33:03;;;;;;;4.22;2.22;;;16.60;99.90;;;;;;5093117;28;20028;-66
2022/08/02 00:35:29;;;;;;;3.83;2.08;;;16.50;99.90;;;;;;5093001;28;20016;-67
2022/08/02 00:37:55;;;;;;;3.85;1.90;;;16.50;99.90;;;;;;5095175;28;20032;-67
2022/08/02 00:40:22;;;;;;;2.92;1.77;;;16.40;99.90;;;;;;5079098;28;20028;-66
2022/08/02 00:43:06;;;;;;;2.75;1.77;;;16.40;99.90;;;;;;5078735;28;20024;-66
2022/08/02 00:45:39;;;;;;;2.78;1.75;;;16.30;99.90;;;;;;5097113;28;20020;-67
2022/08/02 00:48:07;;;;;;;2.58;1.55;;;16.20;99.90;;;;;;5096837;28;20024;-67
2022/08/02 00:50:34;;;;;;;3.83;1.88;;;16.10;99.90;;;;;;5096596;28;20503;-67
2022/08/02 00:53:00;;;;;;;3.78;1.80;;;16.00;99.90;;;;;;5096628;28;20534;-66
2022/08/02 00:55:27;;;;;;;2.90;1.73;;;15.90;99.90;;;;;;5096490;28;20051;-67
2022/08/02 00:57:53;;;;;;;2.80;2.20;;;15.90;99.90;;;;;;5078359;28;20027;-67
2022/08/02 01:00:20;;;;;;;5.95;1.92;;;15.80;99.90;;;;;;5096825;28;20028;-67
2022/08/02 01:02:46;;;;;;;3.88;2.00;;;15.80;99.90;;;;;;5096831;28;20052;-67
2022/08/02 01:05:12;;;;;;;4.05;2.05;;;15.80;99.90;;;;;;5096418;28;20538;-67
2022/08/02 01:07:38;;;;;;;5.25;1.63;;;15.90;99.90;;;;;;5096721;28;20028;-67
2022/08/02 01:10:04;;;;;;;2.33;1.40;;;15.90;99.90;;;;;;5096931;28;20035;-67
2022/08/02 01:12:30;;;;;;;3.75;2.20;;;16.00;99.90;;;;;;5096320;28;20028;-67
2022/08/02 01:15:00;;;;;;;3.35;1.95;;;16.10;99.90;;;;;;5096183;28;20034;-67
2022/08/02 01:17:34;;;;;;;4.15;1.85;;;16.10;99.90;;;;;;5096881;28;20024;-68
2022/08/02 01:20:31;;;;;;;3.70;2.00;;;16.00;99.90;;;;;;5096820;28;20077;-68
2022/08/02 01:23:14;;;;;;;2.88;1.70;;;16.00;99.90;;;;;;5096194;28;20013;-68
2022/08/02 01:25:57;;;;;;;2.83;1.77;;;16.10;99.90;;;;;;5096798;28;20043;-68
2022/08/02 01:28:35;;;;;;;2.90;1.73;;;16.10;99.90;;;;;;5096334;28;20024;-69
2022/08/02 01:31:07;;;;;;;2.60;1.63;;;16.20;99.90;;;;;;5095988;28;20080;-69
2022/08/02 01:33:39;;;;;;;3.03;1.80;;;16.20;99.90;;;;;;5096498;28;20028;-69
2022/08/02 01:36:08;;;;;;;3.55;2.28;;;16.20;99.90;;;;;;5096125;28;20465;-68
2022/08/02 01:38:42;;;;;;;4.00;2.15;;;16.20;99.90;;;;;;5096124;28;20052;-68
2022/08/02 01:41:11;;;;;;;3.47;1.83;;;16.10;99.90;;;;;;5096150;28;20024;-68
2022/08/02 01:43:39;;;;;;;5.60;2.28;;;16.10;99.90;;;;;;5095732;28;20503;-69
2022/08/02 01:46:05;;;;;;;3.20;2.20;;;16.00;99.90;;;;;;5095650;28;20066;-68
2022/08/02 01:48:33;;;;;;;4.68;2.47;;;16.00;99.90;;;;;;5095607;28;20484;-69
2022/08/02 01:51:01;;;;;;;4.38;2.55;;;15.90;99.90;;;;;;5095627;28;20028;-68
2022/08/02 01:53:29;;;;;;;3.22;2.40;;;15.90;99.90;;;;;;5095876;28;20099;-68
2022/08/02 01:55:58;;;;;;;5.88;2.53;;;15.90;99.90;;;;;;5095328;28;20027;-69
2022/08/02 01:58:26;;;;;;;5.75;3.08;;;15.80;99.90;;;;;;5095775;28;20093;-69
2022/08/02 02:00:55;;;;;;;5.57;3.08;;;15.70;99.90;;;;;;5095935;28;20342;-69
2022/08/02 02:03:23;;;;;;;4.07;2.80;;;15.70;99.90;;;;;;5095426;28;20048;-69
2022/08/02 02:05:52;;;;;;;4.13;2.42;;;15.70;99.90;;;;;;5095136;28;20059;-69
2022/08/02 02:08:23;;;;;;;3.00;2.40;;;15.70;99.90;;;;;;5095601;28;20095;-69
2022/08/02 02:10:50;;;;;;;6.28;2.53;;;15.80;99.90;;;;;;5095603;28;20020;-69
2022/08/02 02:13:18;;;;;;;3.65;2.15;;;15.90;99.90;;;;;;5095191;28;20031;-69
2022/08/02 02:15:46;;;;;;;3.33;2.08;;;15.90;99.90;;;;;;5095301;28;20479;-69
2022/08/02 02:18:19;;;;;;;3.25;2.20;;;16.00;99.90;;;;;;5095127;28;20024;-69
2022/08/02 02:20:45;;;;;;;3.35;2.40;;;16.00;99.90;;;;;;5095386;28;20107;-68
2022/08/02 02:23:12;;;;;;;4.18;2.47;;;16.00;99.90;;;;;;5095228;28;20032;-69
2022/08/02 02:25:43;;;;;;;4.60;2.80;;;16.10;99.90;;;;;;5094863;28;20076;-69
2022/08/02 02:28:18;;;;;;;4.35;2.30;;;16.10;99.90;;;;;;5095230;28;20035;-69
2022/08/02 02:30:48;;;;;;;3.92;2.35;;;16.10;99.90;;;;;;5094936;28;20031;-69
2022/08/02 02:33:17;;;;;;;3.72;2.70;;;16.10;99.90;;;;;;5095060;28;20119;-68
2022/08/02 02:35:45;;;;;;;4.25;2.35;;;16.10;99.90;;;;;;5094795;28;20055;-70
2022/08/02 02:38:15;;;;;;;5.28;2.80;;;16.10;99.90;;;;;;5094715;28;20035;-68
2022/08/02 02:40:41;;;;;;;6.53;2.80;;;16.10;99.90;;;;;;5094649;28;20548;-68
2022/08/02 02:43:09;;;;;;;4.53;2.58;;;16.10;99.90;;;;;;5094651;28;20055;-68
2022/08/02 02:45:36;;;;;;;5.22;2.75;;;16.10;99.90;;;;;;5094870;28;20156;-69
2022/08/02 02:48:04;;;;;;;3.78;2.25;;;16.00;99.90;;;;;;5094828;28;20035;-69
2022/08/02 02:50:30;;;;;;;6.15;3.20;;;16.00;99.90;;;;;;5094726;28;20063;-68
2022/08/02 02:52:56;;;;;;;3.78;2.85;;;16.00;99.90;;;;;;5094725;28;20107;-69
2022/08/02 02:55:24;;;;;;;4.82;2.50;;;16.00;99.90;;;;;;5094853;28;20024;-69
2022/08/02 02:57:50;;;;;;;4.40;2.60;;;16.00;99.90;;;;;;5094661;28;20069;-69
2022/08/02 03:00:16;;;;;;;4.03;2.75;;;16.00;99.90;;;;;;5093792;28;20091;-69
2022/08/02 03:02:43;;;;;;;4.43;2.47;;;15.90;99.90;;;;;;5094469;28;19908;-69
2022/08/02 03:05:11;;;;;;;5.68;2.50;;;15.90;99.90;;;;;;5094127;28;20515;-68
2022/08/02 03:07:37;;;;;;;;;;;15.90;99.90;;;;;;5094204;28;20323;-68
2022/08/02 03:10:04;;;;;;;4.80;3.05;;;15.90;99.90;;;;;;5094116;28;20045;-69
2022/08/02 03:12:30;;;;;;;;;;;15.80;99.90;;;;;;5094078;28;20123;-69
2022/08/02 03:14:57;;;;;;;;;;;15.80;99.90;;;;;;5093892;28;20032;-68
2022/08/02 03:17:23;;;;;;;;;;;15.80;99.90;;;;;;5075691;28;20035;-69
2022/08/02 03:19:48;;;;;;;;;;;15.80;99.90;;;;;;5093974;28;20059;-69
2022/08/02 03:22:14;;;;;;;;;;;15.80;99.90;;;;;;5092853;28;20123;-68
2022/08/02 03:24:40;;;;;;;;;;;15.90;99.90;;;;;;5092956;28;19904;-68
2022/08/02 03:27:05;;;;;;;;;;;15.90;99.90;;;;;;5093329;28;19978;-69
2022/08/02 03:29:31;;;;;;;;;;;15.90;99.90;;;;;;5092946;28;19908;-69
2022/08/02 03:31:56;;;;;;;;;;;15.80;99.90;;;;;;5092911;28;24091;-69
2022/08/02 03:34:22;;;;;;;;;;;15.90;99.90;;;;;;5092842;28;24070;-68
2022/08/02 03:36:50;;;;;;;;;;;15.90;99.90;;;;;;5092235;28;20328;-69
2022/08/02 03:39:17;;;;;;;;;;;15.90;99.90;;;;;;5090744;28;19904;-69
2022/08/02 03:41:43;;;;;;;;;;;15.90;99.90;;;;;;5090763;28;19998;-69
2022/08/02 03:44:09;;;;;;;;;;;15.90;99.90;;;;;;5090678;28;19991;-69
2022/08/02 03:46:38;;;;;;;;;;;15.90;99.90;;;;;;5090411;28;19935;-69
2022/08/02 03:49:04;;;;;;;;;;;15.90;99.90;;;;;;5090827;28;19977;-69
2022/08/02 03:51:30;;;;;;;;;;;15.90;99.90;;;;;;5090578;28;20288;-69
2022/08/02 03:53:56;;;;;;;;;;;16.00;99.90;;;;;;5091447;28;19904;-69
2022/08/02 03:56:21;;;;;;;;;;;16.00;99.90;;;;;;5092874;28;19915;-69
2022/08/02 03:58:47;;;;;;;;;;;16.10;99.90;;;;;;5092987;28;19904;-69
2022/08/02 04:01:12;;;;;;;;;;;16.10;99.90;;;;;;5093074;28;24156;-69
2022/08/02 04:03:38;;;;;;;;;;;16.10;99.90;;;;;;5093281;28;19978;-69
2022/08/02 04:06:03;;;;;;;;;;;16.20;99.90;;;;;;5074618;28;24147;-69
2022/08/02 04:08:29;;;;;;;;;;;16.30;99.90;;;;;;5093358;28;19908;-70
2022/08/02 04:13:38;;;;;;;;;;;16.30;99.90;;;;;;5095627;28;19910;-70
2022/08/02 04:16:11;;;;;;;;;;;16.40;99.90;;;;;;5096227;28;19908;-69
2022/08/02 04:18:38;;;;;;;;;;;16.40;99.90;;;;;;5096507;28;19910;-69
2022/08/02 04:21:05;;;;;;;;;;;16.40;99.90;;;;;;5096844;28;19904;-69
2022/08/02 04:23:32;;;;;;;;;;;16.30;99.90;;;;;;5096658;28;25079;-69
2022/08/02 04:25:58;;;;;;;;;;;16.40;99.90;;;;;;5096556;28;19994;-69
2022/08/02 04:28:24;;;;;;;;;;;16.40;99.90;;;;;;5096239;28;19904;-69
2022/08/02 04:30:50;;;;;;;;;;;16.40;99.90;;;;;;5096100;28;24060;-69
2022/08/02 04:33:15;;;;;;;;;;;16.40;99.90;;;;;;5096533;28;19911;-69
2022/08/02 04:35:42;;;;;;;;;;;16.40;99.90;;;;;;5095943;28;19911;-69
2022/08/02 04:38:07;;;;;;;;;;;16.40;99.90;;;;;;5095661;28;19923;-69
2022/08/02 04:40:33;;;;;;;;;;;16.40;99.90;;;;;;5096010;28;19904;-69
2022/08/02 04:42:58;;;;;;;;;;;16.40;99.90;;;;;;5096209;28;19904;-69
2022/08/02 04:45:24;;;;;;;;;;;16.40;99.90;;;;;;5096260;28;19943;-69
2022/08/02 04:47:50;;;;;;;;;;;16.30;99.90;;;;;;5096084;28;19943;-69
2022/08/02 04:50:15;;;;;;;;;;;16.30;99.90;;;;;;5077424;28;19904;-69
2022/08/02 04:52:41;;;;;;;;;;;16.30;99.90;;;;;;5095674;28;24138;-69
2022/08/02 04:55:06;;;;;;;;;;;16.30;99.90;;;;;;5095904;28;19962;-69
2022/08/02 05:00:16;;;;;;;;;;;16.20;99.90;;;;;;5095191;28;19939;-70
2022/08/02 05:02:42;;;;;;;;;;;16.30;99.90;;;;;;5095656;28;20272;-69
2022/08/02 05:05:07;;;;;;;;;;;16.20;99.90;;;;;;5094481;28;19977;-69
2022/08/02 05:07:33;;;;;;;;;;;16.20;99.90;;;;;;5092632;28;19908;-69
2022/08/02 05:09:58;;;;;;;;;;;16.20;99.90;;;;;;5093733;28;20318;-69
2022/08/02 05:12:25;;;;;;;;;;;16.10;99.90;;;;;;5093845;28;20368;-69
2022/08/02 05:14:50;;;;;;;;;;;16.20;99.90;;;;;;5075473;28;19912;-69
2022/08/02 05:17:16;;;;;;;;;;;16.10;99.90;;;;;;5093792;28;20352;-69
2022/08/02 05:19:41;;;;;;;;;;;16.20;99.90;;;;;;5093822;28;19940;-69
2022/08/02 05:22:07;;;;;;;;;;;16.20;99.90;;;;;;5093458;28;19912;-69
2022/08/02 05:24:32;;;;;;;;;;;16.20;99.90;;;;;;5093543;28;19904;-69
2022/08/02 05:26:58;;;;;;;;;;;16.20;99.90;;;;;;5093549;28;19904;-69
2022/08/02 05:29:23;;;;;;;;;;;16.30;99.90;;;;;;5075499;28;24112;-69
2022/08/02 05:31:49;;;;;;;;;;;16.40;99.90;;;;;;5093454;28;24094;-69
2022/08/02 05:34:15;;;;;;;;;;;16.40;99.90;;;;;;5093378;28;19961;-69
2022/08/02 05:36:41;;;;;;;;;;;16.50;99.90;;;;;;5093398;28;19926;-69
2022/08/02 05:39:06;;;;;;;;;;;16.50;99.90;;;;;;5093131;28;19911;-69
2022/08/02 05:41:32;;;;;;;;;;;16.50;99.90;;;;;;5093470;28;19904;-69
2022/08/02 05:43:57;;;;;;;;;;;16.50;99.90;;;;;;5093429;28;19904;-70
2022/08/02 05:46:23;;;;;;;;;;;16.60;99.90;;;;;;5093245;28;19926;-69
2022/08/02 05:48:49;;;;;;;;;;;16.70;99.90;;;;;;5093237;28;19904;-69
2022/08/02 05:51:34;;;;;;;;;;;16.70;99.90;;;;;;5075036;28;19904;-69
2022/08/02 05:54:06;;;;;;;;;;;16.80;99.90;;;;;;5092245;28;19911;-69
2022/08/02 05:56:33;;;;;;;;;;;16.80;99.90;;;;;;5093103;28;20284;-69
2022/08/02 05:59:02;;;;;;;;;;;16.90;99.90;;;;;;5092958;28;24049;-69
2022/08/02 06:01:39;;;;;;;;;;;16.90;99.90;;;;;;5093058;28;19991;-69
2022/08/02 06:04:06;;;;;;;;;;;17.00;99.90;;;;;;5053164;28;1130817;-70
2022/08/02 06:06:31;;;;;;;;;;;17.10;99.90;;;;;;5093769;28;20357;-69
2022/08/02 06:08:58;;;;;;;;;;;17.10;99.90;;;;;;5075442;28;19904;-69
2022/08/02 06:11:29;;;;;;;;;;;17.20;99.90;;;;;;5093848;28;19904;-69
2022/08/02 06:13:55;;;;;;;;;;;17.30;99.90;;;;;;5094024;28;20379;-69
2022/08/02 06:16:21;;;;;;;;;;;17.30;99.90;;;;;;5093723;28;19904;-69
2022/08/02 06:18:47;;;;;;;;;;;17.40;99.90;;;;;;5093731;28;20245;-69
2022/08/02 06:21:14;;;;;;;;;;;17.40;99.90;;;;;;5093454;28;24145;-69
2022/08/02 06:23:40;;;;;;;;;;;17.40;99.90;;;;;;5093261;28;20332;-70
2022/08/02 06:26:07;;;;;;;;;;;17.40;99.90;;;;;;5092947;28;24077;-69
2022/08/02 06:28:36;;;;;;;;;;;17.40;99.90;;;;;;5093253;28;19904;-69
2022/08/02 06:31:01;;;;;;;;;;;17.50;99.90;;;;;;5093384;28;24990;-69
2022/08/02 06:33:27;;;;;;;;;;;17.50;99.90;;;;;;5075713;28;20015;-69
2022/08/02 06:36:01;;;;;;;;;;;17.60;99.90;;;;;;5093086;28;19908;-69
2022/08/02 06:38:27;;;;;;;;;;;17.70;99.90;;;;;;5094382;28;19959;-69
2022/08/02 06:40:55;;;;;;;;;;;17.70;99.90;;;;;;5094279;28;19904;-69
2022/08/02 06:43:30;;;;;;;;;;;17.70;99.90;;;;;;5093849;28;20407;-69
2022/08/02 06:45:55;;;;;;;;;;;17.80;99.90;;;;;;5075276;28;19904;-69
2022/08/02 06:48:21;;;;;;;;;;;17.80;99.90;;;;;;5093320;28;25149;-70
2022/08/02 06:50:47;;;;;;;;;;;17.90;99.90;;;;;;5093736;28;19987;-69
2022/08/02 06:53:12;;;;;;;;;;;17.90;99.90;;;;;;5093385;28;19904;-69
2022/08/02 06:55:38;;;;;;;;;;;18.00;99.90;;;;;;5093055;28;19991;-69
2022/08/02 06:58:03;;;;;;;;;;;18.10;99.90;;;;;;5093352;28;19904;-69
2022/08/02 07:00:29;;;;;;;;;;;18.10;99.90;;;;;;5093022;28;20017;-69
2022/08/02 07:02:55;;;;;;;;;;;18.20;99.90;;;;;;5092876;28;24062;-69
2022/08/02 07:05:21;;;;;;;;;;;18.20;99.90;;;;;;5092860;28;25171;-69
2022/08/02 07:07:46;;;;;;;;;;;18.30;99.90;;;;;;5093027;28;19904;-69
2022/08/02 07:10:12;;;;;;;;;;;18.30;99.90;;;;;;5091800;28;19904;-71
2022/08/02 07:12:38;;;;;;;;;;;18.30;99.90;;;;;;5093046;28;19904;-69
2022/08/02 07:15:05;;;;;;;;;;;18.30;99.90;;;;;;5074526;28;19958;-69
2022/08/02 07:17:30;;;;;;;;;;;18.30;99.90;;;;;;5092579;28;19904;-69
2022/08/02 07:19:56;;;;;;;;;;;18.30;99.90;;;;;;5092846;28;19908;-69
2022/08/02 07:22:23;;;;;;;;;;;18.40;99.90;;;;;;5093062;28;19959;-69
2022/08/02 07:24:49;;;;;;;;;;;18.40;99.90;;;;;;5092658;28;20030;-69
2022/08/02 07:27:14;;;;;;;;;;;18.50;99.90;;;;;;5093228;28;19907;-69
2022/08/02 07:29:40;;;;;;;;;;;18.60;99.90;;;;;;5092865;28;20258;-69
2022/08/02 07:32:06;;;;;;;;;;;18.70;99.90;;;;;;5093262;28;19990;-69
2022/08/02 07:34:32;;;;;;;;;;;18.90;99.90;;;;;;5093736;28;19912;-69
2022/08/02 07:36:57;;;;;;;;;;;19.00;99.90;;;;;;5093261;28;19965;-69
2022/08/02 07:39:23;;;;;;;;;;;19.10;99.90;;;;;;5093007;28;19908;-69
2022/08/02 07:41:50;;;;;;;;;;;19.20;99.90;;;;;;5093027;28;19991;-69
2022/08/02 07:44:17;;;;;;;;;;;19.40;99.90;;;;;;5092674;28;19983;-69
2022/08/02 07:46:43;;;;;;;;;;;19.50;99.90;;;;;;5092165;28;19926;-69
2022/08/02 07:49:09;;;;;;;;;;;19.60;99.90;;;;;;5074411;28;20288;-69
2022/08/02 07:51:35;;;;;;;;;;;19.60;99.90;;;;;;5074260;28;19911;-69
2022/08/02 07:54:01;;;;;;;;;;;19.70;99.90;;;;;;5092200;28;19904;-69
2022/08/02 07:56:27;;;;;;;;;;;19.90;99.90;;;;;;5092438;28;20260;-69
2022/08/02 07:58:53;;;;;;;;;;;19.90;99.90;;;;;;5092643;28;19993;-69
2022/08/02 08:01:18;;;;;;;;;;;20.00;99.90;;;;;;5092202;28;20351;-69
2022/08/02 08:03:44;;;;;;;;;;;20.10;99.90;;;;;;5092053;28;19957;-69
2022/08/02 08:06:10;;;;;;;;;;;20.20;99.90;;;;;;5092126;28;19918;-69
2022/08/02 08:08:35;;;;;;;;;;;20.30;99.90;;;;;;5092321;28;24100;-69
2022/08/02 08:11:01;;;;;;;;;;;20.30;99.90;;;;;;5092238;28;19943;-69
2022/08/02 08:13:27;;;;;;;;;;;20.40;99.90;;;;;;5092386;28;24161;-69
2022/08/02 08:15:53;;;;;;;;;;;20.50;99.90;;;;;;5073866;28;19908;-69
2022/08/02 08:18:19;;;;;;;;;;;20.60;99.90;;;;;;5092656;28;19904;-69
2022/08/02 08:20:45;;;;;;;;;;;20.70;99.90;;;;;;5092131;28;19991;-69
2022/08/02 08:23:10;;;;;;;;;;;20.90;99.90;;;;;;5092295;28;25146;-69
2022/08/02 08:25:36;;;;;;;;;;;21.00;99.90;;;;;;5092632;28;19904;-69
2022/08/02 08:28:01;;;;;;;;;;;21.10;99.90;;;;;;5091886;28;19989;-69
2022/08/02 08:30:27;;;;;;;;;;;21.20;99.90;;;;;;5092440;28;19911;-69
2022/08/02 08:32:52;;;;;;;;;;;21.30;99.90;;;;;;5091891;28;20356;-69
2022/08/02 08:35:18;;;;;;;;;;;21.50;99.90;;;;;;5073607;28;20388;-70
2022/08/02 08:37:44;;;;;;;;;;;21.60;99.90;;;;;;5090259;28;20338;-70
2022/08/02 08:40:10;;;;;;;;;;;21.80;99.90;;;;;;5091786;28;24086;-70
2022/08/02 08:42:36;;;;;;;;;;;22.00;99.90;;;;;;5091698;28;19904;-69
2022/08/02 08:45:02;;;;;;;;;;;22.10;99.90;;;;;;5090303;28;19958;-69
2022/08/02 08:47:32;;;;;;;;;;;22.30;99.90;;;;;;5091727;28;20325;-69
2022/08/02 08:49:58;;;;;;;;;;;22.40;99.90;;;;;;5091811;28;24084;-70
2022/08/02 08:52:25;;;;;;;;;;;22.40;99.90;;;;;;5091845;28;19904;-70
2022/08/02 08:54:51;;;;;;;;;;;22.40;99.90;;;;;;5091698;28;19915;-70
2022/08/02 08:57:19;;;;;;;;;;;22.30;99.90;;;;;;5073530;28;19908;-70
2022/08/02 08:59:44;;;;;;;;;;;22.20;99.90;;;;;;5094517;28;24084;-69
2022/08/02 09:02:10;;;;;;;;;;;22.10;99.90;;;;;;5095358;28;19911;-70
2022/08/02 09:04:35;;;;;;;;;;;22.00;99.90;;;;;;5095356;28;19912;-70
2022/08/02 09:07:01;;;;;;;;;;;22.00;99.90;;;;;;5095795;28;20014;-70
2022/08/02 09:09:27;;;;;;;;;;;21.90;99.90;;;;;;5095447;28;19986;-70
2022/08/02 09:11:52;;;;;;;;;;;21.90;99.90;;;;;;5095341;28;19954;-69
2022/08/02 09:14:25;;;;;;;;;;;22.00;99.90;;;;;;5094952;28;24074;-69
2022/08/02 09:16:51;;;;;;;;;;;22.00;99.90;;;;;;5095750;28;19911;-69
2022/08/02 09:19:25;;;;;;;;;;;22.00;99.90;;;;;;5095941;28;19904;-69
2022/08/02 09:22:00;;;;;;;;;;;22.10;99.90;;;;;;5096038;28;24068;-69
2022/08/02 09:24:26;;;;;;;;;;;22.30;99.90;;;;;;5095404;28;19956;-69
2022/08/02 09:26:52;;;;;;;;;;;22.60;99.90;;;;;;5094960;28;19990;-69
2022/08/02 09:29:22;;;;;;;;;;;22.90;99.20;;;;;;5077349;28;20355;-70
2022/08/02 09:31:48;;;;;;;;;;;23.10;98.40;;;;;;5095702;28;19904;-70
2022/08/02 09:34:14;;;;;;;;;;;23.20;98.80;;;;;;5096156;28;19953;-70
2022/08/02 09:36:40;;;;;;;;;;;23.40;97.50;;;;;;5076995;28;19904;-71
2022/08/02 09:39:08;;;;;;;;;;;23.60;96.90;;;;;;5095109;28;19908;-70
2022/08/02 09:41:34;;;;;;;;;;;23.80;97.30;;;;;;5095500;28;19904;-70
2022/08/02 09:44:01;;;;;;;;;;;23.90;97.60;;;;;;5078122;28;19949;-71
2022/08/02 09:46:29;;;;;;;;;;;24.00;96.60;;;;;;5095378;28;19926;-70
2022/08/02 09:48:55;;;;;;;;;;;24.10;96.20;;;;;;5096117;28;19908;-70
2022/08/02 09:51:22;;;;;;;;;;;24.20;96.50;;;;;;5096352;28;20257;-70
2022/08/02 09:53:49;;;;;;;;;;;24.30;94.90;;;;;;5095642;28;19904;-71
2022/08/02 09:56:15;;;;;;;;;;;24.40;93.30;;;;;;5095858;28;20031;-70
2022/08/02 09:58:41;;;;;;;;;;;24.40;91.50;;;;;;5095990;28;19941;-70
2022/08/02 10:01:07;;;;;;;;;;;24.50;93.00;;;;;;5095629;28;20349;-71
2022/08/02 10:03:33;;;;;;;;;;;24.70;92.70;;;;;;5096296;28;20005;-70
2022/08/02 10:06:00;;;;;;;;;;;24.90;92.50;;;;;;5095654;28;19912;-70
2022/08/02 10:08:27;;;;;;;;;;;25.00;93.90;;;;;;5095729;28;19983;-70
2022/08/02 10:10:59;;;;;;;;;;;25.00;91.70;;;;;;5094454;28;19903;-70
2022/08/02 10:13:29;;;;;;;;;;;25.20;91.70;;;;;;5096240;28;20253;-69
2022/08/02 10:15:57;;;;;;;;;;;25.40;90.90;;;;;;5095788;28;19916;-71
2022/08/02 10:18:23;;;;;;;;;;;25.40;91.30;;;;;;5095902;28;19904;-71
2022/08/02 10:20:49;;;;;;;;;;;25.50;91.20;;;;;;5095767;28;19904;-71
2022/08/02 10:23:15;;;;;;;;;;;25.60;88.90;;;;;;5096365;28;19904;-71
2022/08/02 10:25:41;;;;;;;;;;;25.70;90.40;;;;;;5095370;28;19947;-70
2022/08/02 10:28:07;;;;;;;;;;;25.70;90.40;;;;;;5096004;28;19908;-70
2022/08/02 10:30:38;;;;;;;;;;;25.70;90.50;;;;;;5095313;28;19949;-70
2022/08/02 10:33:04;;;;;;;;;;;25.70;90.60;;;;;;5095623;28;19935;-70
2022/08/02 10:35:32;;;;;;;;;;;25.80;87.50;;;;;;5095126;28;19965;-70
2022/08/02 10:38:00;;;;;;;;;;;25.80;84.20;;;;;;5095041;28;19904;-70
2022/08/02 10:40:41;;;;;;;;;;;25.90;90.40;;;;;;5095088;28;19911;-70
2022/08/02 10:43:06;;;;;;;;;;;26.00;90.00;;;;;;5095402;28;19911;-70
2022/08/02 10:45:33;;;;;;;;;;;26.10;86.00;;;;;;5095225;28;19908;-69
2022/08/02 10:48:00;;;;;;;;;;;26.20;88.00;;;;;;5094985;28;19927;-69
2022/08/02 10:50:44;;;;;;;;;;;26.20;86.90;;;;;;5094927;28;19904;-70
2022/08/02 10:53:18;;;;;;;;;;;25.90;84.90;;;;;;5095206;28;20253;-69
2022/08/02 10:55:44;;;;;;;;;;;25.50;86.30;;;;;;5094922;28;19914;-69
2022/08/02 10:58:18;;;;;;;;;;;25.20;88.00;;;;;;5094789;28;20287;-70
2022/08/02 11:00:43;;;;;;;;;;;25.00;89.00;;;;;;5095012;28;19947;-70
2022/08/02 11:03:27;;;;;;;;;;;24.80;88.20;;;;;;5094678;28;19965;-70
2022/08/02 11:06:19;;;;;;;;;;;24.70;88.70;;;;;;5094555;28;19923;-70
2022/08/02 11:08:45;;;;;;;;;;;24.60;89.40;;;;;;5091681;28;19997;-70
2022/08/02 11:11:10;;;;;;;;;;;24.60;90.00;;;;;;5094845;28;19904;-70
2022/08/02 11:13:54;;;;;;;;;;;24.60;89.90;;;;;;5094578;28;19904;-70
2022/08/02 11:16:20;;;;;;;;;;;24.60;89.50;;;;;;5094376;28;19908;-70
2022/08/02 11:18:48;;;;;;;;;;;24.60;89.20;;;;;;5094731;28;19994;-70
2022/08/02 11:21:20;;;;;;;;;;;24.50;89.80;;;;;;5094063;28;19947;-70
2022/08/02 11:23:46;;;;;;;;;;;24.50;90.20;;;;;;5094907;28;19904;-70
2022/08/02 11:26:30;;;;;;;;;;;24.40;90.30;;;;;;5094521;28;19908;-70
2022/08/02 11:28:59;;;;;;;;;;;24.40;89.70;;;;;;5094585;28;20310;-70
2022/08/02 11:31:25;;;;;;;;;;;24.30;89.60;;;;;;5094222;28;19911;-70
2022/08/02 11:33:51;;;;;;;;;;;24.30;88.30;;;;;;5094175;28;20272;-70
2022/08/02 11:36:17;;;;;;;;;;;24.30;90.10;;;;;;5094043;28;20334;-70
2022/08/02 11:38:42;;;;;;;;;;;24.30;90.30;;;;;;5094416;28;19930;-70
2022/08/02 11:41:08;;;;;;;;;;;24.20;90.60;;;;;;5075579;28;20348;-69
2022/08/02 11:43:34;;;;;;;;;;;24.20;90.70;;;;;;5076259;28;19915;-70
2022/08/02 11:46:03;;;;;;;;;;;24.20;91.00;;;;;;5094270;28;19904;-70
2022/08/02 11:48:32;;;;;;;;;;;24.20;91.00;;;;;;5094324;28;20309;-70
2022/08/02 11:51:08;;;;;;;;;;;24.20;90.30;;;;;;5094289;28;20371;-70
2022/08/02 11:53:42;;;;;;;;;;;24.30;90.90;;;;;;5093932;28;19951;-70
2022/08/02 11:56:08;;;;;;;;;;;24.30;90.30;;;;;;5093878;28;19947;-70
2022/08/02 11:58:34;;;;;;;;;;;24.50;90.70;;;;;;5093879;28;19904;-71
2022/08/02 12:01:00;;;;;;;;;;;24.60;90.50;;;;;;5093857;28;19904;-70
2022/08/02 12:03:26;;;;;;;;;;;24.70;90.00;;;;;;5094391;28;19904;-71
2022/08/02 12:05:51;;;;;;;;;;;24.80;90.30;;;;;;5093610;28;20368;-70
2022/08/02 12:08:18;;;;;;;;;;;25.10;87.50;;;;;;5094086;28;19958;-70
2022/08/02 12:10:47;;;;;;;;;;;25.20;86.60;;;;;;5093760;28;19912;-70
2022/08/02 12:13:13;;;;;;;;;;;25.30;87.00;;;;;;5094093;28;20399;-70
2022/08/02 12:15:40;;;;;;;;;;;25.20;84.00;;;;;;5093804;28;19950;-71
2022/08/02 12:20:54;;;;;;;;;;;25.00;88.40;;;;;;5094031;28;19912;-70
2022/08/02 12:23:20;;;;;;;;;;;24.90;89.70;;;;;;5093613;28;19904;-71
2022/08/02 12:25:45;;;;;;;;;;;24.80;87.90;;;;;;5093539;28;19904;-70
2022/08/02 12:28:15;;;;;;;;;;;24.70;86.90;;;;;;5093491;28;19908;-70
2022/08/02 12:30:51;;;;;;;;;;;24.60;87.80;;;;;;5093454;28;20383;-70
2022/08/02 12:33:17;;;;;;;;;;;24.50;88.40;;;;;;5094250;28;20053;-70
2022/08/02 12:35:42;;;;;;;;;;;24.50;89.30;;;;;;5097255;28;20366;-70
2022/08/02 12:38:08;;;;;;;;;;;24.40;90.90;;;;;;5097343;28;19904;-69
2022/08/02 12:40:34;;;;;;;;;;;24.40;90.90;;;;;;5097293;28;19907;-70
2022/08/02 12:43:00;;;;;;;;;;;24.40;91.40;;;;;;5097518;28;19904;-71
2022/08/02 12:45:27;;;;;;;;;;;24.40;90.50;;;;;;5097135;28;19943;-70
2022/08/02 12:47:53;;;;;;;;;;;24.30;91.00;;;;;;5097254;28;19908;-70
2022/08/02 12:50:21;;;;;;;;;;;24.20;90.50;;;;;;5097282;28;19904;-70
2022/08/02 12:52:47;;;;;;;;;;;24.20;90.20;;;;;;5097412;28;20364;-70
2022/08/02 12:55:17;;;;;;;;;;;24.30;90.00;;;;;;5096959;28;19914;-71
2022/08/02 12:57:52;;;;;;;;;;;24.30;91.00;;;;;;5097079;28;19914;-70
2022/08/02 13:00:22;;;;;;;;;;;24.40;91.40;;;;;;5097129;28;19943;-70
2022/08/02 13:02:47;;;;;;;;;;;24.50;91.30;;;;;;5097007;28;19910;-70
2022/08/02 13:05:13;;;;;;;;;;;24.70;90.70;;;;;;5097171;28;19916;-70
2022/08/02 13:07:38;;;;;;;;;;;24.90;85.20;;;;;;5096775;28;19990;-70
2022/08/02 13:10:04;;;;;;;;;;;25.00;86.10;;;;;;5078607;28;19944;-70
2022/08/02 13:12:29;;;;;;;;;;;25.10;86.60;;;;;;5096962;28;19904;-70
2022/08/02 13:14:55;;;;;;;;;;;25.10;86.50;;;;;;5097001;28;20428;-69
2022/08/02 13:17:20;;;;;;;;;;;25.10;83.60;;;;;;5096915;28;19999;-70
2022/08/02 13:19:46;;;;;;;;;;;25.10;82.80;;;;;;5096519;28;19948;-70
2022/08/02 13:22:12;;;;;;;;;;;25.10;83.90;;;;;;5096515;28;19998;-70
2022/08/02 13:24:37;;;;;;;;;;;25.10;83.50;;;;;;5096689;28;19904;-70
2022/08/02 13:27:03;;;;;;;;;;;25.20;87.10;;;;;;5096910;28;19911;-70
2022/08/02 13:29:28;;;;;;;;;;;25.30;85.50;;;;;;5096733;28;19927;-70
2022/08/02 13:31:54;;;;;;;;;;;25.30;82.20;;;;;;5096377;28;19957;-70
2022/08/02 13:34:19;;;;;;;;;;;25.40;82.10;;;;;;5096410;28;19904;-70
2022/08/02 13:36:45;;;;;;;;;;;25.40;82.90;;;;;;5096281;28;19904;-70
2022/08/02 13:39:11;;;;;;;;;;;25.50;83.40;;;;;;5078309;28;20283;-70
2022/08/02 13:41:37;;;;;;;;;;;25.50;80.60;;;;;;5096629;28;20061;-70
2022/08/02 13:44:02;;;;;;;;;;;25.60;80.00;;;;;;5095974;28;20386;-70
2022/08/02 13:46:28;;;;;;;;;;;25.60;80.10;;;;;;5096173;28;20356;-71
2022/08/02 13:48:53;;;;;;;;;;;25.80;81.50;;;;;;5096193;28;19950;-71
2022/08/02 13:51:19;;;;;;;;;;;25.90;80.10;;;;;;5096072;28;19904;-71
2022/08/02 13:53:44;;;;;;;;;;;26.00;79.60;;;;;;5096384;28;19908;-71
2022/08/02 13:56:10;;;;;;;;;;;26.00;79.30;;;;;;5095868;28;19908;-70
2022/08/02 13:58:35;;;;;;;;;;;26.10;79.60;;;;;;5095973;28;19969;-71
2022/08/02 14:01:01;;;;;;;;;;;26.30;81.80;;;;;;5096259;28;19955;-70
2022/08/02 14:03:26;;;;;;;;;;;26.40;80.70;;;;;;5096382;28;19991;-70